Terminal Aerodrome Forecast
Issued by NWS

Home | Current Version | Previous Version | Text Only | Print | Product List | Glossary On
Versions: 1 2 3 4 5 6 7 8 9 10 11 12 13 14 15 16 17 18 19 20 21 22 23 24 25 26 27 28 29 30 31 32 33
000
FTAK31 PAFA 061420 AAA
TAFABT
TAF AMD
PABT 061420Z 0614/0712 VRB04KT 2SM FU SCT040 BKN090
     FM061700 VRB02KT 4SM FU SCT015 SCT120
     FM062100 08006KT 5SM FU SCT015 SCT200=

USA.gov is the U.S. government's official web portal to all federal, state and local government web resources and services.